Tiempo atmosférico en la estación meteorológica de Sant Pau De Seguries, Girona (863 m.)



Fecha
DESCASC
Temp. máxima en grados centígrados (hora)
DESCASC
Temp. mínima en grados centígrados (hora)
DESCASC
Temp. media en grados centígrados
DESCASC
Racha de viento máxima en m/sg (hora)
DESCASC
Velocidad máxima media en intervalos de 10 minutos(hora)
DESCASC
Precipitaciones diarias en mm
DESCASC
Precipitaciones de 00:00 a 06:00 en mm
DESCASC
Precipitaciones de 06:00 a 12:00 en mm
DESCASC
Precipitaciones de 12:00 a 18:00 en mm
DESCASC
Precipitaciones de 18:00 a 24:00 en mm
DESCASC
15-08-2019 25.5 (13:10) 11 (04:10) 18.3 6.94 (14:40) 3.61 (14:50) -- -- -- -- --
14-08-2019 26.8 (17:20) 11.2 (00:00) 19 6.11 (18:10) 2.78 (17:50) -- -- -- -- --
13-08-2019 24.1 (16:00) 9.6 (00:00) 16.9 6.67 (14:40) 2.78 (18:00) -- -- -- -- --
12-08-2019 22.1 (15:00) 13.8 (00:00) 18 6.39 (17:10) 2.78 (17:10) -- -- -- -- --
11-08-2019 31.2 (15:20) 14.7 (00:00) 23 7.5 (16:00) 3.33 (11:10) -- -- -- -- --
10-08-2019 30.5 (16:00) 16.9 (00:00) 23.7 7.78 (16:40) 3.61 (16:40) -- -- -- -- --
09-08-2019 34.8 (16:00) 15.9 (00:00) 25.3 9.72 (15:30) 4.17 (15:10) -- -- -- -- --
08-08-2019 29.3 (15:00) 16.9 (00:00) 23.1 5.83 (15:30) 2.78 (15:30) -- -- -- -- --
07-08-2019 25.6 (13:20) 17 (00:00) 21.3 6.67 (15:00) 2.78 (13:30) -- -- -- -- --
06-08-2019 30 (15:50) 15 (00:00) 22.5 7.5 (14:50) 3.06 (15:00) -- -- -- -- --
05-08-2019 32.4 (15:30) 13.4 (00:00) 22.9 9.17 (16:00) 3.61 (16:00) -- -- -- -- --
04-08-2019 30.4 (15:20) 12.6 (00:00) 21.5 6.67 (17:40) 2.78 (17:40) -- -- -- -- --
03-08-2019 29.1 (15:40) 11.8 (00:00) 20.5 6.39 (16:20) 2.78 (16:20) -- -- -- -- --
02-08-2019 28.6 (14:50) 13.6 (00:00) 21.1 6.67 (17:10) 2.78 (16:40) -- -- -- -- --
01-08-2019 26 (15:50) 12.8 (00:00) 19.4 7.22 (14:30) 2.78 (15:00) -- -- -- -- --
31-07-2019 -- (--) -- (--) -- -- (--) -- (--) -- -- -- -- --
30-07-2019 24.2 (11:00) 13.8 (00:00) 19 6.39 (15:00) 3.61 (15:30) -- -- -- -- --
29-07-2019 28.2 (15:10) 11.2 (00:00) 19.7 6.39 (16:50) 2.5 (13:40) -- -- -- -- --
28-07-2019 23.8 (17:10) 8.9 (00:00) 16.3 7.22 (19:20) 3.33 (18:10) -- -- -- -- --
27-07-2019 20.5 (17:20) 11.2 (00:00) 15.8 9.72 (12:20) 3.89 (12:20) -- -- -- -- --
26-07-2019 29.9 (15:00) 13.8 (00:00) 21.8 8.61 (18:30) 3.89 (17:30) -- -- -- -- --
25-07-2019 33.2 (14:50) 14.6 (00:00) 23.9 7.22 (15:00) 3.06 (17:40) -- -- -- -- --
24-07-2019 32 (16:00) 15.6 (00:00) 23.8 7.22 (16:20) 3.06 (17:20) -- -- -- -- --
23-07-2019 32.1 (15:20) 14 (00:00) 23 6.94 (16:00) 3.06 (16:00) -- -- -- -- --
22-07-2019 32.3 (16:10) 14.5 (00:00) 23.4 7.22 (15:30) 3.06 (17:30) -- -- -- -- --
21-07-2019 29.5 (15:30) 14.4 (00:00) 21.9 7.78 (15:20) 3.06 (15:20) -- -- -- -- --
20-07-2019 31.7 (16:10) 15.8 (00:00) 23.8 7.22 (17:30) 3.33 (12:00) -- -- -- -- --
19-07-2019 27.1 (17:00) 13.6 (00:00) 20.4 6.11 (12:40) 2.78 (12:40) -- -- -- -- --
18-07-2019 24.7 (16:20) 11.9 (00:00) 18.3 5.83 (13:00) 2.78 (14:30) -- -- -- -- --

Gráficas

Temp. máximas Temp. mínimas Temp. medias Precipitaciones Rachas de viento máximas Velocidades máximas media en intervalos de 10 minutos

Datos horarios

Fecha y hora oficial Temperatura (ºC) Velocidad del viento (km/h) Dirección del viento Racha (km/h) Dirección de racha Precipitación (mm) Presión (hPa) Tendencia (hPa) Humedad (%)
2019-08-16 23:00:00 18.3 3 Nordeste 7 Este 0 -- -- 91
2019-08-16 22:00:00 19.2 3 Este 6 Nordeste 0 -- -- 88
2019-08-16 21:00:00 21.3 3 Nordeste 11 Este 0 -- -- 80
2019-08-16 20:00:00 23.2 6 Este 15 Este 0 -- -- 72
2019-08-16 19:00:00 25.1 3 Nordeste 15 Nordeste 0 -- -- 64
2019-08-16 18:00:00 26.7 10 Nordeste 20 Este 0 -- -- 57
2019-08-16 17:00:00 28.7 8 Sudoeste 21 Oeste 0 -- -- 46
2019-08-16 16:00:00 28.3 11 Sudoeste 24 Sudoeste 0 -- -- 49
2019-08-16 15:00:00 28.1 6 Oeste 24 Sudoeste 0 -- -- 51
2019-08-16 14:00:00 26.4 11 Sudoeste 26 Oeste 0 -- -- 55
2019-08-16 13:00:00 25.3 9 Sudoeste 24 Sudoeste 0 -- -- 59
2019-08-16 12:00:00 23.8 10 Sudoeste 27 Oeste 0 -- -- 61
2019-08-16 11:00:00 21.7 12 Sudoeste 28 Oeste 0 -- -- 70
2019-08-16 10:00:00 20 9 Sudoeste 21 Sudoeste 0 -- -- 80
2019-08-16 09:00:00 18 4 Oeste 8 Oeste 0 -- -- 91
2019-08-16 08:00:00 15.4 3 Este 8 Nordeste 0 -- -- 88
2019-08-16 07:00:00 15.6 4 Nordeste 9 Nordeste 0 -- -- 88
2019-08-16 06:00:00 17 3 Sudoeste 15 Sudoeste 0 -- -- 99
2019-08-16 05:00:00 17.1 6 Sudoeste 12 Sudoeste 0 -- -- 99
2019-08-16 04:00:00 17 0 Calma 5 Norte 0 -- -- 100
2019-08-16 03:00:00 16.9 0 Calma 5 Noroeste 0 -- -- 100
2019-08-16 02:00:00 17 2 Noroeste 6 Nordeste 0 -- -- 100
2019-08-16 01:00:00 17.1 0 Calma 4 Sur 0 -- -- 100
2019-08-16 00:00:00 17 2 Sur 4 Sur 0.2 -- -- 100
2019-08-15 23:00:00 17 0 Calma 4 Sudoeste 1 -- -- 99
2019-08-15 22:00:00 17.1 3 Nordeste 9 Sur 1.2 -- -- 98
2019-08-15 21:00:00 17.4 5 Este 12 Este 0.8 -- -- 96
2019-08-15 20:00:00 18.6 5 Este 12 Este 0 -- -- 90
2019-08-15 19:00:00 18.8 6 Este 15 Sudeste 0 -- -- 86
2019-08-15 18:00:00 19.3 6 Sudeste 13 Nordeste 0 -- -- 85
2019-08-15 17:00:00 20.2 7 Sudeste 16 Este 0 -- -- 80
2019-08-15 16:00:00 20.5 8 Este 15 Nordeste 0 -- -- 74
2019-08-15 15:00:00 21.4 8 Este 25 Este 0 -- -- 71
2019-08-15 14:00:00 24.6 5 Este 16 Nordeste 0 -- -- 55
2019-08-15 13:00:00 25.4 6 Sudeste 17 Nordeste 0 -- -- 52
2019-08-15 12:00:00 23.9 4 Sudoeste 13 Sudoeste 0 -- -- 56
2019-08-15 11:00:00 23.4 4 Sudoeste 9 Sudoeste 0 -- -- 58
2019-08-15 10:00:00 21.3 0 Calma 12 Nordeste 0 -- -- 61
2019-08-15 09:00:00 16.8 6 Nordeste 11 Nordeste 0 -- -- 72
2019-08-15 08:00:00 13.4 4 Nordeste 13 Norte 0 -- -- 85
2019-08-15 07:00:00 12.4 4 Nordeste 12 Nordeste 0 -- -- 90
2019-08-15 06:00:00 11.8 3 Nordeste 7 Este 0 -- -- 98
2019-08-15 05:00:00 11.1 2 Sudeste 5 Sudeste 0 -- -- 99
2019-08-15 04:00:00 11.1 0 Calma 2 Sur 0 -- -- 98
2019-08-15 03:00:00 11.6 2 Sur 4 Oeste 0 -- -- 97
2019-08-15 02:00:00 12.4 2 Sudoeste 4 Sudeste 0 -- -- 96
2019-08-15 01:00:00 13 0 Calma 0 Calma 0 -- -- 93
2019-08-15 00:00:00 14.2 0 Calma 3 Sudoeste 0 -- -- 88
2019-08-14 23:00:00 16.3 0 Calma 8 Sudeste 0 -- -- 82
2019-08-14 22:00:00 17.5 4 Este 9 Nordeste 0 -- -- 77
2019-08-14 21:00:00 19.9 3 Norte 10 Este 0 -- -- 69
2019-08-14 20:00:00 22 5 Este 15 Este 0 -- -- 61
2019-08-14 19:00:00 22.8 7 Nordeste 22 Sudeste 0 -- -- 54
2019-08-14 18:00:00 24.5 9 Este 20 Este 0 -- -- 49
2019-08-14 17:00:00 26.6 9 Norte 18 Norte 0 -- -- 43
2019-08-14 16:00:00 25.5 6 Sudeste 20 Este 0 -- -- 45
2019-08-14 15:00:00 25.1 5 Sudeste 21 Norte 0 -- -- 49
2019-08-14 14:00:00 25.1 7 Norte 17 Nordeste 0 -- -- 45
2019-08-14 13:00:00 23.2 8 Este 15 Este 0 -- -- 51
2019-08-14 12:00:00 22.1 6 Nordeste 16 Este 0 -- -- 56
2019-08-14 11:00:00 21.3 6 Oeste 15 Oeste 0 -- -- 49
2019-08-14 10:00:00 18.2 6 Sudoeste 14 Sudoeste 0 -- -- 71
2019-08-14 09:00:00 14.7 3 Noroeste 7 Noroeste 0 -- -- 82
2019-08-14 08:00:00 11.7 3 Norte 12 Norte 0 -- -- 87
2019-08-14 07:00:00 11.3 4 Norte 12 Norte 0 -- -- 90
2019-08-14 06:00:00 11.6 4 Norte 12 Norte 0 -- -- 89
2019-08-14 05:00:00 11.9 3 Nordeste 9 Norte 0 -- -- 89
2019-08-14 04:00:00 12 3 Nordeste 8 Norte 0 -- -- 90
2019-08-14 03:00:00 12.8 3 Nordeste 10 Nordeste 0 -- -- 87
2019-08-14 02:00:00 13.6 4 Nordeste 9 Norte 0 -- -- 84
2019-08-14 01:00:00 14.6 5 Nordeste 12 Norte 0 -- -- 80
2019-08-14 00:00:00 15.3 4 Norte 12 Norte 0 -- -- 79
2019-08-13 23:00:00 15.6 4 Nordeste 10 Nordeste 0 -- -- 80
2019-08-13 22:00:00 16 4 Nordeste 10 Nordeste 0 -- -- 79
2019-08-13 21:00:00 18.3 5 Nordeste 15 Nordeste 0 -- -- 70
2019-08-13 20:00:00 20 6 Nordeste 17 Nordeste 0 -- -- 63
2019-08-13 19:00:00 21.2 8 Nordeste 18 Nordeste 0 -- -- 53
2019-08-13 18:00:00 22.2 10 Nordeste 23 Nordeste 0 -- -- 49
2019-08-13 17:00:00 22.3 10 Nordeste 22 Nordeste 0 -- -- 47
2019-08-13 16:00:00 24.1 8 Sudeste 21 Este 0 -- -- 42
2019-08-13 15:00:00 22.5 4 Nordeste 24 Nordeste 0 -- -- 49
2019-08-13 14:00:00 22.2 8 Este 20 Este 0 -- -- 51
2019-08-13 13:00:00 21.4 4 Este 16 Nordeste 0 -- -- 55
2019-08-13 12:00:00 19.9 4 Este 13 Este 0 -- -- 61
2019-08-13 11:00:00 17.5 4 Nordeste 12 Sudoeste 0 -- -- 69
2019-08-13 10:00:00 15.3 5 Sudoeste 14 Sudoeste 0 -- -- 76
2019-08-13 09:00:00 12.8 5 Sudoeste 12 Oeste 0 -- -- 97
2019-08-13 08:00:00 11.2 0 Calma 4 Oeste 0 -- -- 100
2019-08-13 07:00:00 9.8 0 Calma 2 Sur 0 -- -- 98
2019-08-13 06:00:00 10.3 2 Norte 6 Noroeste 0 -- -- 94
2019-08-13 05:00:00 11.1 0 Calma 6 Norte 0 -- -- 92
2019-08-13 04:00:00 12.3 3 Este 9 Norte 0 -- -- 88
2019-08-13 03:00:00 13.6 0 Calma 3 Oeste 0 -- -- 92
2019-08-13 02:00:00 14.2 2 Oeste 5 Nordeste 0 -- -- 92
2019-08-13 01:00:00 14 0 Calma 3 Sudeste 0 -- -- 91
2019-08-13 00:00:00 14.3 3 Norte 6 Noroeste 0 -- -- 88
2019-08-12 23:00:00 14.1 3 Este 5 Sudeste 0 -- -- 92
2019-08-12 22:00:00 15.2 3 Nordeste 9 Norte 0 -- -- 85
2019-08-12 21:00:00 16.6 0 Calma 10 Norte 0 -- -- 78
2019-08-12 20:00:00 18.7 4 Norte 11 Nordeste 0 -- -- 68
2019-08-12 19:00:00 20 5 Norte 17 Este 0 -- -- 67
2019-08-12 18:00:00 21 6 Nordeste 23 Este 0 -- -- 57
2019-08-12 17:00:00 20.6 8 Este 22 Este 0 -- -- 64
2019-08-12 16:00:00 20.7 7 Este 19 Este 0 -- -- 67
2019-08-12 15:00:00 22.1 9 Este 16 Este 0 -- -- 67
2019-08-12 14:00:00 20.8 7 Este 19 Sudeste 0 -- -- 71
2019-08-12 13:00:00 21 8 Este 15 Sur 0.2 -- -- 73
2019-08-12 12:00:00 20 3 Sur 11 Sudoeste 0 -- -- 80
2019-08-12 11:00:00 19.2 4 Sudoeste 9 Oeste 0 -- -- 86
2019-08-12 10:00:00 17.8 3 Sudoeste 7 Sudoeste 0.2 -- -- 91
2019-08-12 09:00:00 17.3 2 Oeste 8 Norte 0 -- -- 95
2019-08-12 08:00:00 16.5 2 Norte 8 Sudeste 0.2 -- -- 95
2019-08-12 07:00:00 16.9 3 Sur 6 Sur 0.2 -- -- 96
2019-08-12 06:00:00 17.7 0 Calma 7 Norte 0 -- -- 95
2019-08-12 05:00:00 18.1 3 Nordeste 6 Norte 0 -- -- 88
2019-08-12 04:00:00 18.3 3 Nordeste 9 Norte 0 -- -- 87
2019-08-12 03:00:00 18.4 4 Nordeste 9 Este 0 -- -- 85
2019-08-12 02:00:00 17.8 0 Calma 7 Nordeste 0 -- -- 89
2019-08-12 01:00:00 17.8 4 Nordeste 9 Este 0 -- -- 87
2019-08-12 00:00:00 17.9 4 Este 8 Este 0 -- -- 87
2019-08-11 23:00:00 18.6 3 Norte 7 Norte 0 -- -- 85
2019-08-11 22:00:00 20.5 2 Este 11 Sudeste 0 -- -- 78
2019-08-11 21:00:00 21.7 5 Sudeste 12 Este 0 -- -- 74
2019-08-11 20:00:00 22.8 8 Este 15 Este 0 -- -- 68
2019-08-11 19:00:00 23.6 7 Este 16 Sudeste 0 -- -- 66
2019-08-11 18:00:00 24.8 8 Este 25 Este 0 -- -- 62
2019-08-11 17:00:00 25.8 5 Este 26 Nordeste 0 -- -- 57
2019-08-11 16:00:00 29.3 10 Nordeste 27 Nordeste 0 -- -- 47
2019-08-11 15:00:00 30.7 5 Sur 17 Sudeste 0 -- -- 43
2019-08-11 14:00:00 28.9 7 Sudoeste 20 Oeste 0 -- -- 49
2019-08-11 13:00:00 27.3 8 Sudoeste 23 Sudoeste 0 -- -- 52
2019-08-11 12:00:00 26.3 10 Sudoeste 26 Sudoeste 0 -- -- 58
2019-08-11 11:00:00 25.2 9 Sudoeste 20 Sudoeste 0 -- -- 62
2019-08-11 10:00:00 22.6 3 Sudoeste 8 Oeste 0 -- -- 71
2019-08-11 09:00:00 19 5 Nordeste 12 Nordeste 0 -- -- 81
2019-08-11 08:00:00 16.1 4 Nordeste 11 Nordeste 0 -- -- 93
2019-08-11 07:00:00 14.9 0 Calma 8 Norte 0 -- -- 96
2019-08-11 06:00:00 15.6 0 Calma 11 Nordeste 0 -- -- 93
2019-08-11 05:00:00 16 5 Nordeste 10 Este 0 -- -- 92
2019-08-11 04:00:00 16.3 5 Nordeste 11 Este 0 -- -- 92
2019-08-11 03:00:00 16.4 6 Nordeste 14 Nordeste 0 -- -- 91
2019-08-11 02:00:00 16.9 5 Nordeste 11 Nordeste 0 -- -- 89
2019-08-11 01:00:00 17.7 4 Nordeste 9 Nordeste 0 -- -- 87
2019-08-11 00:00:00 18.3 4 Nordeste 8 Nordeste 0 -- -- 84
2019-08-10 23:00:00 19 3 Este 9 Nordeste 0 -- -- 82
2019-08-10 22:00:00 20.8 3 Nordeste 9 Nordeste 0 -- -- 77
2019-08-10 21:00:00 22.9 3 Nordeste 12 Este 0 -- -- 68
2019-08-10 20:00:00 24.5 7 Sudeste 19 Este 0 -- -- 61
2019-08-10 19:00:00 26 10 Este 22 Nordeste 0 -- -- 56
2019-08-10 18:00:00 27.2 8 Este 28 Este 0 -- -- 53
2019-08-10 17:00:00 27.8 11 Nordeste 28 Nordeste 0 -- -- 53
2019-08-10 16:00:00 30.5 7 Este 24 Este 0 -- -- 41
2019-08-10 15:00:00 29 4 Norte 22 Este 0 -- -- 52
2019-08-10 14:00:00 27.5 5 Este 18 Este 0 -- -- 59
2019-08-10 13:00:00 26.4 5 Sur 15 Este 0 -- -- 65
2019-08-10 12:00:00 24.7 4 Sudeste 15 Este 0 -- -- 72
2019-08-10 11:00:00 23.5 4 Sudeste 13 Este 0 -- -- 78
2019-08-10 10:00:00 22.6 3 Norte 9 Este 0 -- -- 81
2019-08-10 09:00:00 20 3 Nordeste 12 Nordeste 0 -- -- 80
2019-08-10 08:00:00 17.9 5 Nordeste 13 Nordeste 0 -- -- 87
2019-08-10 07:00:00 17 5 Nordeste 10 Nordeste 0 -- -- 89
2019-08-10 06:00:00 17.4 4 Nordeste 10 Nordeste 0 -- -- 88
2019-08-10 05:00:00 17.6 5 Nordeste 12 Nordeste 0 -- -- 84
2019-08-10 04:00:00 18.2 6 Nordeste 11 Nordeste 0 -- -- 84
2019-08-10 03:00:00 18.3 6 Nordeste 15 Nordeste 0 -- -- 85
2019-08-10 02:00:00 19.1 3 Nordeste 12 Norte 0 -- -- 84
2019-08-10 01:00:00 19.5 3 Norte 11 Norte 0 -- -- 83
2019-08-10 00:00:00 20.7 3 Nordeste 11 Norte 0 -- -- 77
2019-08-09 23:00:00 21.6 3 Este 8 Este 0 -- -- 81
2019-08-09 22:00:00 23.1 3 Este 9 Nordeste 0 -- -- 82
2019-08-09 21:00:00 26.2 4 Nordeste 15 Nordeste 0 -- -- 73
2019-08-09 20:00:00 29.9 5 Nordeste 24 Sur 0 -- -- 56
2019-08-09 19:00:00 33.2 11 Sudoeste 30 Sur 0 -- -- 24
2019-08-09 18:00:00 34.3 8 Sudoeste 32 Sur 0 -- -- 25
2019-08-09 17:00:00 34.7 12 Sudoeste 33 Oeste 0 -- -- 26
2019-08-09 16:00:00 34.8 8 Sudoeste 35 Oeste 0 -- -- 27
2019-08-09 15:00:00 34.4 13 Sudoeste 34 Sudoeste 0 -- -- 28
2019-08-09 14:00:00 33.3 15 Sudoeste 33 Sudoeste 0 -- -- 33
2019-08-09 13:00:00 32 12 Sudoeste 31 Sur 0 -- -- 39
2019-08-09 12:00:00 30.4 11 Sudoeste 27 Oeste 0 -- -- 42
2019-08-09 11:00:00 28.1 13 Sudoeste 26 Sudoeste 0 -- -- 51
2019-08-09 10:00:00 24.2 7 Sudoeste 16 Sudoeste 0 -- -- 66
2019-08-09 09:00:00 19.8 4 Sudoeste 9 Sudoeste 0 -- -- 84
2019-08-09 08:00:00 16.6 4 Sudoeste 12 Sudoeste 0 -- -- 99
2019-08-09 07:00:00 16.1 6 Sudoeste 13 Sudoeste 0 -- -- 99
2019-08-09 06:00:00 16.5 4 Sudoeste 10 Sudoeste 0 -- -- 98
2019-08-09 05:00:00 17.3 4 Sudoeste 9 Sudoeste 0 -- -- 96
2019-08-09 04:00:00 18.3 4 Sudoeste 12 Sudoeste 0 -- -- 94
2019-08-09 03:00:00 18.6 5 Sudoeste 10 Sudoeste 0 -- -- 96
2019-08-09 02:00:00 19.2 4 Sudoeste 13 Sudoeste 0 -- -- 96
2019-08-09 01:00:00 19.3 3 Sudoeste 10 Sur 0 -- -- 99
2019-08-09 00:00:00 19.4 4 Sudoeste 9 Sur 0 -- -- 99
2019-08-08 23:00:00 19.7 2 Sur 6 Nordeste 0 -- -- 95
2019-08-08 22:00:00 21.2 0 Calma 3 Este 0 -- -- 91
2019-08-08 21:00:00 23.3 0 Calma 9 Nordeste 0 -- -- 82
2019-08-08 20:00:00 25.6 4 Este 12 Nordeste 0 -- -- 74
2019-08-08 19:00:00 26.9 5 Este 18 Nordeste 0 -- -- 70
2019-08-08 18:00:00 28 8 Nordeste 17 Nordeste 0 -- -- 68
2019-08-08 17:00:00 27.2 7 Este 20 Nordeste 0 -- -- 69
2019-08-08 16:00:00 27.7 8 Este 21 Este 0 -- -- 60
2019-08-08 15:00:00 29.3 4 Sudeste 14 Sudeste 0 -- -- 50
2019-08-08 14:00:00 27.9 4 Este 14 Este 0 -- -- 54
2019-08-08 13:00:00 26.8 5 Sur 14 Este 0 -- -- 59
2019-08-08 12:00:00 26.3 6 Este 13 Sudeste 0 -- -- 61
2019-08-08 11:00:00 24.9 4 Sudeste 12 Nordeste 0 -- -- 67
2019-08-08 10:00:00 22.2 2 Sudoeste 9 Sudoeste 0 -- -- 80
2019-08-08 09:00:00 18.4 3 Sudoeste 9 Sudoeste 0 -- -- 100
2019-08-08 08:00:00 16.9 3 Sudoeste 9 Oeste 0 -- -- 100
2019-08-08 07:00:00 17.2 6 Sudoeste 9 Sudoeste 0 -- -- 100
2019-08-08 06:00:00 17.7 3 Sudoeste 8 Sudoeste 0 -- -- 99
2019-08-08 05:00:00 17.7 2 Sudoeste 7 Norte 0 -- -- 98
2019-08-08 04:00:00 18.1 0 Calma 4 Norte 0 -- -- 96
2019-08-08 03:00:00 18.6 0 Calma 9 Sudoeste 0 -- -- 97
2019-08-08 02:00:00 18.5 4 Sudoeste 9 Sudoeste 0 -- -- 96
2019-08-08 01:00:00 18.8 0 Calma 9 Nordeste 0 -- -- 92
2019-08-08 00:00:00 18.7 3 Sur 5 Sudoeste 0 -- -- 95
2019-08-07 23:00:00 18.8 0 Calma 10 Nordeste 0 -- -- 93
2019-08-07 22:00:00 18.8 3 Este 6 Nordeste 0 -- -- 93
2019-08-07 21:00:00 19.4 0 Calma 10 Nordeste 0 -- -- 90
2019-08-07 20:00:00 20.5 4 Sudeste 9 Sur 0 -- -- 85
2019-08-07 19:00:00 21.2 5 Este 19 Nordeste 0 -- -- 80
2019-08-07 18:00:00 22.2 5 Este 13 Norte 0 -- -- 75
2019-08-07 17:00:00 22.8 6 Nordeste 17 Norte 0 -- -- 74
2019-08-07 16:00:00 23.3 7 Nordeste 21 Nordeste 0 -- -- 73
2019-08-07 15:00:00 24.5 10 Este 24 Nordeste 0 -- -- 70
2019-08-07 14:00:00 24.6 8 Nordeste 22 Este 0 -- -- 73
2019-08-07 13:00:00 25.2 8 Este 20 Este 0 -- -- 71
2019-08-07 12:00:00 24.9 9 Este 18 Este 0 -- -- 73
2019-08-07 11:00:00 23.6 6 Este 12 Nordeste 0 -- -- 77
2019-08-07 10:00:00 21.3 3 Oeste 9 Norte 0 -- -- 88
2019-08-07 09:00:00 19.7 0 Calma 10 Nordeste 0 -- -- 86
2019-08-07 08:00:00 17.8 4 Nordeste 9 Este 0 -- -- 94
2019-08-07 07:00:00 17.1 2 Este 5 Norte 0 -- -- 96
2019-08-07 06:00:00 17.8 0 Calma 4 Sudeste 0 -- -- 95
2019-08-07 05:00:00 18.2 0 Calma 3 Sudeste 0 -- -- 93
2019-08-07 04:00:00 19.1 2 Nordeste 10 Nordeste -- -- -- 88
2019-08-07 03:00:00 19.5 3 Nordeste 7 Nordeste 0 -- -- 88
2019-08-07 02:00:00 20.3 2 Nordeste 9 Este 0 -- -- 89
2019-08-07 01:00:00 20.9 5 Nordeste 11 Este 0 -- -- 88
2019-08-07 00:00:00 20.6 4 Norte 9 Norte 0 -- -- 92
2019-08-06 23:00:00 21.2 0 Calma 5 Norte 0 -- -- 93
2019-08-06 22:00:00 22.4 3 Este 9 Nordeste 0 -- -- 90
2019-08-06 21:00:00 23.4 6 Nordeste 10 Norte 0 -- -- 85
2019-08-06 20:00:00 24.9 7 Sudeste 16 Sudeste 0 -- -- 77
2019-08-06 19:00:00 27.4 7 Este 19 Sudeste 0 -- -- 63
2019-08-06 18:00:00 29.1 8 Este 21 Este 0 -- -- 48
2019-08-06 17:00:00 29.7 7 Este 23 Este 0 -- -- 49
2019-08-06 16:00:00 29.9 9 Este 26 Sudeste 0 -- -- 46
2019-08-06 15:00:00 29 11 Este 27 Este 0 -- -- 49
2019-08-06 14:00:00 28.8 5 Sudeste 19 Nordeste 0 -- -- 51
2019-08-06 13:00:00 28.5 7 Este 15 Este 0 -- -- 52
2019-08-06 12:00:00 27 5 Este 16 Nordeste 0 -- -- 55
2019-08-06 11:00:00 25.6 7 Este 12 Sudeste 0 -- -- 59
2019-08-06 10:00:00 23.7 3 Norte 13 Norte 0 -- -- 67
2019-08-06 09:00:00 19.6 6 Nordeste 13 Nordeste 0 -- -- 72
2019-08-06 08:00:00 16.8 4 Nordeste 10 Nordeste 0 -- -- 81
2019-08-06 07:00:00 15.6 4 Este 10 Nordeste 0 -- -- 86
2019-08-06 06:00:00 15 2 Sudeste 6 Este 0 -- -- 93
2019-08-06 05:00:00 15.7 2 Oeste 12 Norte 0 -- -- 88
2019-08-06 04:00:00 16.4 5 Nordeste 13 Nordeste 0 -- -- 85
2019-08-06 03:00:00 16.9 5 Nordeste 14 Nordeste 0 -- -- 85
2019-08-06 02:00:00 17.7 5 Nordeste 10 Norte 0 -- -- 84
2019-08-06 01:00:00 18 4 Nordeste 10 Norte 0 -- -- 86
2019-08-06 00:00:00 17.8 0 Calma 5 Este 0 -- -- 91
2019-08-05 23:00:00 18.5 0 Calma 3 Sur 0 -- -- 89
2019-08-05 22:00:00 20.7 0 Calma 7 Nordeste 0 -- -- 81
2019-08-05 21:00:00 23.5 2 Este 10 Este 0 -- -- 72
2019-08-05 20:00:00 26.1 7 Nordeste 13 Este 0 -- -- 61
2019-08-05 19:00:00 27.9 6 Nordeste 17 Este 0 -- -- 54
2019-08-05 18:00:00 29 7 Nordeste 19 Nordeste 0 -- -- 53
2019-08-05 17:00:00 29.6 11 Nordeste 22 Nordeste 0 -- -- 52
2019-08-05 16:00:00 31.4 13 Sudeste 33 Sudeste 0 -- -- 45
2019-08-05 15:00:00 31.8 6 Oeste 19 Oeste 0 -- -- 37
2019-08-05 14:00:00 30.7 9 Oeste 22 Oeste 0 -- -- 38
2019-08-05 13:00:00 29.6 9 Oeste 23 Oeste 0 -- -- 40
2019-08-05 12:00:00 28.3 9 Sudoeste 21 Sudoeste 0 -- -- 42
2019-08-05 11:00:00 -- 3 Sudoeste 12 Sudoeste 0 -- -- --
2019-08-05 10:00:00 21.1 6 Sudoeste 10 Sudoeste 0 -- -- 78
2019-08-05 09:00:00 17.7 3 Sudeste 10 Sudoeste 0 -- -- 96
2019-08-05 08:00:00 14.8 5 Sudoeste 12 Sudoeste 0 -- -- 100
2019-08-05 07:00:00 13.4 0 Calma 3 Sur 0 -- -- 100
2019-08-05 06:00:00 13.7 0 Calma 3 Sudoeste 0 -- -- 100
2019-08-05 05:00:00 14.1 0 Calma 3 Sudoeste 0 -- -- 100
2019-08-05 04:00:00 14.4 0 Calma 3 Sur 0 -- -- 99
2019-08-05 03:00:00 15 0 Calma 4 Sudeste 0 -- -- 99
2019-08-05 02:00:00 15.4 0 Calma 4 Sur 0 -- -- 98
2019-08-05 01:00:00 16 0 Calma 4 Sudeste 0 -- -- 98
2019-08-05 00:00:00 16.7 0 Calma 4 Nordeste 0 -- -- 97
2019-08-04 23:00:00 17.7 0 Calma 6 Nordeste 0 -- -- 94
2019-08-04 22:00:00 18.6 2 Nordeste 6 Nordeste 0 -- -- 93
2019-08-04 21:00:00 19.7 0 Calma 6 Norte 0 -- -- 91
2019-08-04 20:00:00 21.4 4 Norte 8 Noroeste 0 -- -- 87
2019-08-04 19:00:00 24 3 Noroeste 14 Nordeste 0 -- -- 77
2019-08-04 18:00:00 28.2 8 Nordeste 24 Norte 0 -- -- 49
2019-08-04 17:00:00 28.2 8 Nordeste 19 Este 0 -- -- 48
2019-08-04 16:00:00 30.2 9 Este 23 Este 0 -- -- 42
2019-08-04 15:00:00 30 8 Este 18 Sudeste 0 -- -- 44
2019-08-04 14:00:00 29.5 7 Este 17 Este 0 -- -- 45
2019-08-04 13:00:00 29 4 Sudeste 12 Este 0 -- -- 45
2019-08-04 12:00:00 27.9 5 Este 12 Este 0 -- -- 47
2019-08-04 11:00:00 26.8 5 Nordeste 12 Este 0 -- -- 50
2019-08-04 10:00:00 23.7 5 Nordeste 11 Nordeste 0 -- -- 63
2019-08-04 09:00:00 18.9 3 Este 7 Noroeste 0 -- -- 76
2019-08-04 08:00:00 14.2 0 Calma 0 Calma 0 -- -- 100
2019-08-04 07:00:00 12.7 0 Calma 0 Calma 0 -- -- 100
2019-08-04 06:00:00 12.9 0 Calma 0 Calma 0 -- -- 100
2019-08-04 05:00:00 13.2 0 Calma 0 Calma 0 -- -- 98
2019-08-04 04:00:00 13.7 0 Calma 3 Sudoeste 0 -- -- 97
2019-08-04 03:00:00 14.4 2 Sur 4 Sudoeste 0 -- -- 96
2019-08-04 02:00:00 15 2 Sur 4 Oeste 0 -- -- 95
2019-08-04 01:00:00 15.7 0 Calma 4 Sudeste 0 -- -- 93
2019-08-04 00:00:00 16.7 0 Calma 3 Sur 0 -- -- 89
2019-08-03 23:00:00 18.6 0 Calma 6 Este 0 -- -- 82
2019-08-03 22:00:00 19.8 0 Calma 8 Este 0 -- -- 79
2019-08-03 21:00:00 22.3 3 Este 7 Este 0 -- -- 71
2019-08-03 20:00:00 25.4 6 Este 13 Este 0 -- -- 53
2019-08-03 19:00:00 26.5 3 Sudeste 13 Nordeste 0 -- -- 50
2019-08-03 18:00:00 27.5 8 Nordeste 18 Norte 0 -- -- 49
2019-08-03 17:00:00 27.3 9 Este 23 Este 0 -- -- 46
2019-08-03 16:00:00 29.1 7 Sudeste 21 Este 0 -- -- 44
2019-08-03 15:00:00 28.5 6 Sudeste 19 Este 0 -- -- 44
2019-08-03 14:00:00 28.3 5 Noroeste 22 Este 0 -- -- 46
2019-08-03 13:00:00 27.9 4 Sudoeste 16 Nordeste 0 -- -- 46
2019-08-03 12:00:00 26 4 Sudeste 13 Sudeste 0 -- -- 54
2019-08-03 11:00:00 25 3 Este 13 Sudoeste 0 -- -- 56
2019-08-03 10:00:00 21.2 6 Sudoeste 12 Sudoeste 0 -- -- 66
2019-08-03 09:00:00 17.2 2 Sudeste 6 Sudoeste 0 -- -- 87
2019-08-03 08:00:00 13.2 3 Sudoeste 5 Oeste 0 -- -- 100
2019-08-03 07:00:00 11.8 0 Calma 5 Sudoeste 0 -- -- 99
2019-08-03 06:00:00 12.3 2 Sudoeste 4 Sur 0 -- -- 99
2019-08-03 05:00:00 12.8 0 Calma 2 Sudeste 0 -- -- 98
2019-08-03 04:00:00 13.5 0 Calma 3 Sudoeste 0 -- -- 97
2019-08-03 03:00:00 14.1 0 Calma 3 Sur 0 -- -- 96
2019-08-03 02:00:00 15.2 0 Calma 3 Sur 0 -- -- 93
2019-08-03 01:00:00 17 2 Sudoeste 8 Este 0 -- -- 87
2019-08-03 00:00:00 17.8 4 Este 9 Nordeste 0 -- -- 83
2019-08-02 23:00:00 18.2 5 Nordeste 9 Este 0 -- -- 81
2019-08-02 22:00:00 19.5 3 Este 12 Norte 0 -- -- 78
2019-08-02 21:00:00 22.6 3 Nordeste 14 Este 0 -- -- 63
2019-08-02 20:00:00 24.4 6 Nordeste 16 Sudeste 0 -- -- 56
2019-08-02 19:00:00 25.6 5 Nordeste 13 Norte 0 -- -- 51
2019-08-02 18:00:00 25.6 6 Este 24 Este 0 -- -- 50
2019-08-02 17:00:00 26.7 6 Este 21 Sudeste 0 -- -- 47
2019-08-02 16:00:00 27.3 5 Este 18 Este 0 -- -- 50
2019-08-02 15:00:00 28.5 6 Este 21 Este 0 -- -- 45
2019-08-02 14:00:00 27.6 6 Este 18 Este 0 -- -- 46
2019-08-02 13:00:00 26.8 7 Sudeste 17 Este 0 -- -- 45
2019-08-02 12:00:00 26.1 4 Nordeste 11 Nordeste 0 -- -- 49
2019-08-02 11:00:00 24.2 3 Sudoeste 13 Sudoeste 0 -- -- 55
2019-08-02 10:00:00 20.9 5 Sudoeste 13 Sudoeste 0 -- -- 63
2019-08-02 09:00:00 17 4 Sudoeste 10 Sur 0 -- -- 86
2019-08-02 08:00:00 14.7 3 Sudoeste 8 Sudoeste 0 -- -- 98
2019-08-02 07:00:00 14.2 3 Sur 5 Oeste 0 -- -- 97
2019-08-02 06:00:00 14.5 2 Sudoeste 9 Este 0 -- -- 94
2019-08-02 05:00:00 14.1 0 Calma 6 Oeste 0 -- -- 89
2019-08-02 04:00:00 14 4 Sudoeste 10 Sudoeste 0 -- -- 90
2019-08-02 03:00:00 13.6 5 Sur 15 Sudoeste 0 -- -- 90
2019-08-02 02:00:00 14.3 2 Noroeste 10 Este 0 -- -- 87
2019-08-02 01:00:00 15.2 6 Nordeste 12 Nordeste 0 -- -- 84
2019-08-02 00:00:00 15.5 4 Este 10 Este 0 -- -- 83
2019-08-01 23:00:00 16.7 5 Nordeste 11 Nordeste 0 -- -- 78
2019-08-01 22:00:00 17.8 2 Nordeste 9 Norte 0 -- -- 72
2019-08-01 21:00:00 20.7 0 Calma 12 Este 0 -- -- 63
2019-08-01 20:00:00 23.7 5 Nordeste 15 Este 0 -- -- 49
2019-08-01 19:00:00 24.9 5 Nordeste 17 Este 0 -- -- 47
2019-08-01 18:00:00 25.6 7 Este 18 Este 0 -- -- 45
2019-08-01 17:00:00 25.8 7 Sudeste 20 Nordeste 0 -- -- 45
2019-08-01 16:00:00 25.9 7 Este 25 Nordeste 0 -- -- 46
2019-08-01 15:00:00 25.8 10 Este 26 Este 0 -- -- 45
2019-08-01 14:00:00 25.6 8 Este 20 Este 0 -- -- 53
2019-08-01 13:00:00 24.9 7 Este 15 Este 0 -- -- 54
2019-08-01 12:00:00 23.9 6 Este 13 Este 0 -- -- 57
2019-08-01 11:00:00 22 4 Nordeste 14 Nordeste 0 -- -- 59
2019-08-01 10:00:00 20.8 4 Sudeste 10 Este 0 -- -- 67
2019-08-01 09:00:00 18.7 4 Nordeste 8 Norte 0 -- -- 75
2019-08-01 08:00:00 13.7 2 Oeste 5 Sudeste 0 -- -- 96
2019-08-01 07:00:00 13.1 3 Sudoeste 11 Nordeste 0 -- -- 91
2019-08-01 06:00:00 14.2 4 Este 14 Nordeste 0 -- -- 85
2019-08-01 05:00:00 14.2 5 Este 14 Este 0 -- -- 85
2019-08-01 04:00:00 13.9 0 Calma 5 Sudeste 0 -- -- 93
2019-08-01 03:00:00 14.5 2 Oeste 7 Noroeste 0 -- -- 93
2019-08-01 02:00:00 14.8 0 Calma 9 Norte 0 -- -- 96
2019-08-01 01:00:00 15 0 Calma 3 Noroeste 0 -- -- 93
2019-08-01 00:00:00 16.3 0 Calma 8 Este 0 -- -- 87
2019-07-31 23:00:00 17 3 Este 11 Nordeste 0 -- -- 85
2019-07-31 22:00:00 18.7 3 Norte 8 Norte 0 -- -- 79
2019-07-31 21:00:00 20.2 4 Nordeste 11 Sudeste 0 -- -- 71
2019-07-31 20:00:00 22.1 4 Este 14 Este 0 -- -- 64
2019-07-31 19:00:00 23.5 7 Este 18 Este 0 -- -- 61
2019-07-31 18:00:00 24.5 6 Este 19 Nordeste 0 -- -- 55
2019-07-31 17:00:00 24.6 7 Este 21 Este 0 -- -- 54
2019-07-31 16:00:00 24.6 9 Este 23 Este 0 -- -- 55
2019-07-31 15:00:00 24.6 9 Este 19 Este 0 -- -- 56
2019-07-31 14:00:00 23.6 7 Este 17 Este 0 -- -- 60
2019-07-31 13:00:00 22.9 8 Este 17 Sudeste 0 -- -- 60
2019-07-31 12:00:00 22.3 9 Sur 18 Sudoeste 0 -- -- 61
2019-07-31 11:00:00 21.7 10 Sudoeste 22 Oeste 0 -- -- 57
2019-07-31 10:00:00 19.9 8 Oeste 17 Oeste 0 -- -- 72
2019-07-31 09:00:00 17.8 6 Sudoeste 13 Oeste 0 -- -- 85
2019-07-31 08:00:00 16.1 4 Sudoeste 12 Sudoeste 0 -- -- 94
2019-07-31 07:00:00 14.9 6 Sudoeste 14 Sudoeste 0 -- -- 98
2019-07-31 06:00:00 14.3 3 Sur 11 Norte 0 -- -- 93
2019-07-31 05:00:00 -- -- -- -- -- -- -- -- --
2019-07-31 04:00:00 15.7 3 Norte 8 Norte 0 -- -- 88
2019-07-31 03:00:00 16.4 0 Calma 4 Oeste 0 -- -- 92
2019-07-31 02:00:00 16.5 0 Calma 5 Este 0 -- -- 93
2019-07-31 01:00:00 16.6 2 Nordeste 6 Nordeste 0 -- -- 92
2019-07-31 00:00:00 16.6 0 Calma 4 Sudeste 0 -- -- 94
2019-07-30 23:00:00 17.1 0 Calma 7 Nordeste 0 -- -- 90
2019-07-30 22:00:00 18.4 4 Norte 9 Nordeste 0 -- -- 76
2019-07-30 21:00:00 19.1 5 Nordeste 11 Norte 0 -- -- 74
2019-07-30 20:00:00 19.8 4 Nordeste 16 Este 0 -- -- 73
2019-07-30 19:00:00 21.1 8 Este 17 Este 0 -- -- 69
2019-07-30 18:00:00 21.7 8 Sudeste 18 Este 0 -- -- 65
2019-07-30 17:00:00 22.8 10 Este 21 Este 0 -- -- 61
2019-07-30 16:00:00 22.7 6 Sudeste 22 Sudeste 0 -- -- 65
2019-07-30 15:00:00 23.4 11 Nordeste 23 Nordeste 0 -- -- 66
2019-07-30 14:00:00 23.2 7 Nordeste 18 Nordeste 0 -- -- 67
2019-07-30 13:00:00 23.7 3 Oeste 17 Nordeste 0 -- -- 66
2019-07-30 12:00:00 23.5 4 Sudoeste 11 Sudoeste 0 -- -- 60
2019-07-30 11:00:00 24.2 7 Sudoeste 13 Oeste 0 -- -- 56
2019-07-30 10:00:00 21.3 3 Sur 8 Sudoeste 0 -- -- 74
2019-07-30 09:00:00 18.4 0 Calma 8 Norte 0 -- -- 80
2019-07-30 08:00:00 15.5 0 Calma 8 Norte 0 -- -- 94
2019-07-30 07:00:00 14.1 2 Nordeste 8 Norte 0 -- -- 98
2019-07-30 06:00:00 13.9 2 Norte 9 Norte 0 -- -- 99
2019-07-30 05:00:00 14.3 0 Calma 8 Norte 0 -- -- 96
2019-07-30 04:00:00 15.7 3 Nordeste 8 Norte 0 -- -- 95
2019-07-30 03:00:00 16.5 3 Nordeste 9 Este 0 -- -- 93
2019-07-30 02:00:00 17 3 Nordeste 9 Norte 0 -- -- 92
2019-07-30 01:00:00 17.5 6 Nordeste 14 Norte 0 -- -- 91
2019-07-30 00:00:00 18.2 4 Este 8 Nordeste 0 -- -- 92
2019-07-29 23:00:00 19.1 4 Nordeste 8 Nordeste 0 -- -- 91
2019-07-29 22:00:00 20.2 4 Nordeste 9 Nordeste 0 -- -- 86
2019-07-29 21:00:00 22.7 4 Este 12 Sudeste 0 -- -- 76
2019-07-29 20:00:00 24.3 6 Este 15 Este 0 -- -- 68
2019-07-29 19:00:00 25.7 9 Este 19 Este 0 -- -- 61
2019-07-29 18:00:00 27.3 7 Este 18 Este 0 -- -- 51
2019-07-29 17:00:00 27.4 8 Este 23 Este 0 -- -- 46
2019-07-29 16:00:00 27.7 6 Este 17 Este 0 -- -- 39
2019-07-29 15:00:00 28 4 Oeste 19 Sudoeste 0 -- -- 39
2019-07-29 14:00:00 26.4 8 Oeste 20 Oeste 0 -- -- 43
2019-07-29 13:00:00 25.2 7 Oeste 18 Sur 0 -- -- 50
2019-07-29 12:00:00 23.6 7 Oeste 18 Oeste 0 -- -- 54
2019-07-29 11:00:00 21.4 6 Sudoeste 13 Sudoeste 0 -- -- 63
2019-07-29 10:00:00 18.8 5 Sudoeste 10 Sudoeste 0 -- -- 76
2019-07-29 09:00:00 15.7 3 Nordeste 8 Nordeste 0 -- -- 76
2019-07-29 08:00:00 12.6 2 Nordeste 9 Nordeste 0 -- -- 90
2019-07-29 07:00:00 11.3 4 Este 9 Norte 0 -- -- 97
2019-07-29 06:00:00 11.7 3 Nordeste 9 Norte 0 -- -- 99
2019-07-29 05:00:00 12.2 2 Oeste 7 Oeste 0 -- -- 100
2019-07-29 04:00:00 12.4 4 Sudoeste 8 Sudoeste 0 -- -- 100
2019-07-29 03:00:00 12.3 2 Sudeste 5 Norte 0.2 -- -- 95
2019-07-29 02:00:00 13.2 0 Calma 5 Sudeste 0 -- -- 91
2019-07-29 01:00:00 15.8 2 Norte 10 Sur 0 -- -- 82
2019-07-29 00:00:00 16.7 3 Sur 9 Nordeste 0 -- -- 82
2019-07-28 23:00:00 17.2 3 Nordeste 9 Nordeste 0 -- -- 87
2019-07-28 22:00:00 18 3 Este 15 Nordeste 0 -- -- 81
2019-07-28 21:00:00 18.8 5 Nordeste 13 Este 0 -- -- 77
2019-07-28 20:00:00 -- 8 Este 26 Este 0 -- -- --
2019-07-28 19:00:00 21.2 10 Este 23 Sudeste 0 -- -- 64
2019-07-28 18:00:00 22.9 10 Nordeste 22 Nordeste 0 -- -- 57
2019-07-28 17:00:00 23.5 9 Nordeste 20 Este 0 -- -- 53
2019-07-28 16:00:00 22.5 8 Nordeste 24 Este 0 -- -- 59
2019-07-28 15:00:00 23.3 6 Sudeste 21 Sudeste 0 -- -- 59
2019-07-28 14:00:00 22 9 Este 23 Nordeste 0 -- -- 61
2019-07-28 13:00:00 21.4 6 Este 16 Nordeste 0 -- -- 62
2019-07-28 12:00:00 20.2 3 Sudeste 17 Nordeste 0 -- -- 64
2019-07-28 11:00:00 18.7 7 Este 14 Este 0 -- -- 71
2019-07-28 10:00:00 15.7 5 Sudoeste 10 Oeste 0 -- -- 83
2019-07-28 09:00:00 12.6 3 Sudoeste 13 Sudoeste 0.2 -- -- 100
2019-07-28 08:00:00 9.9 5 Sudoeste 11 Sudoeste 0 -- -- 100
2019-07-28 07:00:00 8.9 2 Sur 6 Este 0 -- -- 100
2019-07-28 06:00:00 9.4 3 Norte 9 Norte 0 -- -- 100
2019-07-28 05:00:00 9.7 4 Este 8 Nordeste 0 -- -- 100
2019-07-28 04:00:00 9.9 3 Este 10 Nordeste 0 -- -- 100
2019-07-28 03:00:00 10.4 3 Sudeste 8 Este 0 -- -- 100
2019-07-28 02:00:00 10.3 2 Sudoeste 6 Sudeste 0 -- -- 100
2019-07-28 01:00:00 10.9 2 Norte 5 Sudeste 0 -- -- 100
2019-07-28 00:00:00 11.2 2 Este 6 Norte 0 -- -- 100
2019-07-27 23:00:00 11.5 0 Calma 6 Nordeste 0 -- -- 100
2019-07-26 12:00:00 -- -- -- -- -- -- -- -- --
2019-07-26 11:00:00 26.5 10 Sudoeste 21 Sudoeste 0 -- -- 44
2019-07-26 10:00:00 23.6 5 Sur 10 Sudoeste 0 -- -- 57
2019-07-26 09:00:00 19.2 3 Sudoeste 8 Oeste 0 -- -- 72
2019-07-26 08:00:00 16.3 2 Sudoeste 4 Sudoeste 0 -- -- 82
2019-07-26 07:00:00 14 0 Calma 3 Sur 0 -- -- 93
2019-07-26 06:00:00 14.4 2 Sur 8 Oeste 0 -- -- 90
2019-07-26 05:00:00 14.7 3 Sudoeste 5 Sur 0 -- -- 89
2019-07-26 04:00:00 16 0 Calma 10 Sudoeste 0 -- -- 80
2019-07-26 03:00:00 18.5 5 Sudoeste 24 Sudoeste 0 -- -- 73
2019-07-26 02:00:00 19.5 10 Sudoeste 24 Oeste 0 -- -- 71
2019-07-26 01:00:00 20.5 9 Sudoeste 21 Sudoeste 0 -- -- 67
2019-07-26 00:00:00 22.3 8 Sudoeste 26 Oeste 0 -- -- 60
2019-07-25 23:00:00 22.1 6 Sudoeste 17 Sudoeste 0 -- -- 62
2019-07-25 22:00:00 21.8 2 Sudeste 10 Nordeste 0 -- -- 79
2019-07-25 21:00:00 25.1 4 Nordeste 11 Sudoeste 0 -- -- 71
2019-07-25 20:00:00 27 5 Sudeste 14 Este 0 -- -- 63
2019-07-25 19:00:00 28.5 6 Nordeste 20 Este 0 -- -- 54
2019-07-25 18:00:00 30.3 10 Este 24 Nordeste 0 -- -- 47
2019-07-25 17:00:00 31.9 8 Nordeste 23 Norte 0 -- -- 44
2019-07-25 16:00:00 32.5 6 Nordeste 19 Oeste 0 -- -- 38
2019-07-25 15:00:00 33.1 9 Sudoeste 26 Oeste 0 -- -- 32
2019-07-25 14:00:00 32.2 9 Oeste 21 Oeste 0 -- -- 32
2019-07-25 13:00:00 31 9 Sudoeste 19 Sudoeste 0 -- -- 33
2019-07-25 12:00:00 29.9 9 Oeste 22 Oeste 0 -- -- 34
2019-07-25 11:00:00 27.6 8 Sudoeste 20 Oeste 0 -- -- 42
2019-07-25 10:00:00 23.8 0 Calma 2 Sudoeste 0 -- -- 64
2019-07-25 09:00:00 19.3 0 Calma 2 Sur 0 -- -- 90
2019-07-25 08:00:00 16.2 0 Calma 0 Calma 0 -- -- 100
2019-07-25 07:00:00 14.7 0 Calma 0 Calma 0 -- -- 99
2019-07-25 06:00:00 15.4 0 Calma 0 Calma 0 -- -- 99
2019-07-25 05:00:00 15.7 0 Calma 6 Sudoeste 0 -- -- 98
2019-07-25 04:00:00 16.1 0 Calma 0 Calma 0 -- -- 97
2019-07-25 03:00:00 16.6 0 Calma 2 Sudoeste 0 -- -- 95
2019-07-25 02:00:00 17.5 0 Calma 3 Sudoeste 0 -- -- 94
2019-07-25 01:00:00 18.5 0 Calma 5 Noroeste 0 -- -- 93
2019-07-25 00:00:00 19.4 0 Calma 5 Sudeste 0 -- -- 89
2019-07-24 23:00:00 21.3 4 Este 8 Nordeste 0 -- -- 82
2019-07-24 22:00:00 22.6 0 Calma 3 Sudeste 0 -- -- 75
2019-07-24 21:00:00 26.1 3 Sudeste 11 Sudeste 0 -- -- 63
2019-07-24 20:00:00 27.7 6 Este 15 Sudeste 0 -- -- 60
2019-07-24 19:00:00 28.9 7 Este 18 Este 0 -- -- 60
2019-07-24 18:00:00 29.9 7 Este 23 Sudeste 0 -- -- 56
2019-07-24 17:00:00 31.1 8 Este 26 Nordeste 0 -- -- 52
2019-07-24 16:00:00 32 6 Este 25 Este 0 -- -- 46
2019-07-24 15:00:00 31.5 4 Nordeste 19 Este 0 -- -- 46
2019-07-24 14:00:00 30.5 8 Este 19 Este 0 -- -- 48
2019-07-24 13:00:00 29.8 6 Sudeste 18 Sudeste 0 -- -- 52
2019-07-24 12:00:00 28.3 7 Este 15 Este 0 -- -- 55
2019-07-24 11:00:00 27 6 Sudeste 13 Este 0 -- -- 58
2019-07-24 10:00:00 25.8 3 Noroeste 12 Este 0 -- -- 58
2019-07-24 09:00:00 21.6 5 Nordeste 12 Norte 0 -- -- 65
2019-07-24 08:00:00 17.8 5 Nordeste 13 Nordeste 0 -- -- 75
2019-07-24 07:00:00 16.8 8 Nordeste 13 Nordeste 0 -- -- 77
2019-07-24 06:00:00 16.7 5 Nordeste 13 Nordeste 0 -- -- 79
2019-07-24 05:00:00 15.7 3 Sudeste 6 Este 0 -- -- 89
2019-07-24 04:00:00 16.7 0 Calma 7 Norte 0 -- -- 86
2019-07-24 03:00:00 18.1 2 Este 6 Este 0 -- -- 83
2019-07-24 02:00:00 19.2 4 Sudoeste 16 Sudoeste 0 -- -- 81
2019-07-24 01:00:00 20.3 8 Sudoeste 18 Oeste 0 -- -- 78
2019-07-24 00:00:00 21.1 8 Sudoeste 21 Oeste 0 -- -- 76
2019-07-23 23:00:00 20.4 0 Calma 5 Este 0 -- -- 85
2019-07-23 22:00:00 22.1 0 Calma 2 Sur 0 -- -- 77
2019-07-23 21:00:00 25.6 0 Calma 8 Sudeste 0 -- -- 67
2019-07-23 20:00:00 28.1 5 Este 13 Este 0 -- -- 55
2019-07-23 19:00:00 29.5 5 Nordeste 19 Sudeste 0 -- -- 51
2019-07-23 18:00:00 30.1 8 Sudeste 19 Nordeste 0 -- -- 50
2019-07-23 17:00:00 31.1 9 Este 21 Nordeste 0 -- -- 51
2019-07-23 16:00:00 31.9 11 Este 25 Este 0 -- -- 42
2019-07-23 15:00:00 31.6 8 Este 20 Nordeste 0 -- -- 45
2019-07-23 14:00:00 31.5 6 Este 21 Este 0 -- -- 43
2019-07-23 13:00:00 30.9 4 Sur 12 Este 0 -- -- 40
2019-07-23 12:00:00 29.5 8 Este 14 Sudeste 0 -- -- 40
2019-07-23 11:00:00 28.6 5 Este 11 Este 0 -- -- 40
2019-07-23 10:00:00 25.9 3 Norte 12 Nordeste 0 -- -- 54
2019-07-23 09:00:00 21.6 5 Nordeste 9 Nordeste 0 -- -- 60
2019-07-23 08:00:00 16.7 3 Este 7 Este 0 -- -- 76
2019-07-23 07:00:00 14 0 Calma 3 Sur 0 -- -- 93
2019-07-23 06:00:00 15.4 0 Calma 10 Sudoeste 0 -- -- 88
2019-07-23 05:00:00 16.6 6 Sudoeste 17 Sudoeste 0 -- -- 86
2019-07-23 04:00:00 17.2 8 Sudoeste 17 Sudoeste 0 -- -- 85
2019-07-23 03:00:00 17.7 6 Sudoeste 15 Sudoeste 0 -- -- 85
2019-07-23 02:00:00 18.8 7 Sudoeste 18 Sudoeste 0 -- -- 82
2019-07-23 01:00:00 18.7 6 Sudoeste 13 Oeste 0 -- -- 85
2019-07-23 00:00:00 18.7 0 Calma 4 Sur 0 -- -- 91
2019-07-22 23:00:00 20.2 0 Calma 5 Sudeste 0 -- -- 85
2019-07-22 22:00:00 22 0 Calma 3 Sur 0 -- -- 78
2019-07-22 21:00:00 25.5 0 Calma 8 Este 0 -- -- 69
2019-07-22 20:00:00 27.9 5 Este 14 Nordeste 0 -- -- 57
2019-07-22 19:00:00 29.4 7 Este 21 Este 0 -- -- 54
2019-07-22 18:00:00 30.4 8 Este 22 Este 0 -- -- 52
2019-07-22 17:00:00 31.5 9 Este 22 Este 0 -- -- 48
2019-07-22 16:00:00 32.2 7 Este 26 Este 0 -- -- 43
2019-07-22 15:00:00 31.7 9 Este 24 Este 0 -- -- 44
2019-07-22 14:00:00 31.2 5 Sur 14 Este 0 -- -- 46
2019-07-22 13:00:00 29.9 5 Este 19 Este 0 -- -- 46
2019-07-22 12:00:00 28.6 5 Este 15 Sudeste 0 -- -- 53
2019-07-22 11:00:00 27.2 6 Este 12 Este 0 -- -- 57
2019-07-22 10:00:00 24.5 2 Norte 6 Nordeste 0 -- -- 66
2019-07-22 09:00:00 19.1 0 Calma 6 Sudoeste 0 -- -- 89
2019-07-22 08:00:00 15.8 2 Sudoeste 5 Sur 0 -- -- 100
2019-07-22 07:00:00 14.6 0 Calma 3 Sudoeste 0 -- -- 100
2019-07-22 06:00:00 14.6 0 Calma 3 Sur 0 -- -- 99
2019-07-22 05:00:00 15.2 0 Calma 3 Sudoeste 0 -- -- 99
2019-07-22 04:00:00 15.5 0 Calma 3 Sur 0 -- -- 98
2019-07-22 03:00:00 16.1 0 Calma 4 Sudoeste 0 -- -- 97
2019-07-22 02:00:00 17 2 Sudoeste 4 Sur 0 -- -- 97
2019-07-22 01:00:00 17.7 2 Sur 4 Sur 0 -- -- 95
2019-07-22 00:00:00 18.8 2 Sudeste 5 Este 0 -- -- 92
2019-07-21 23:00:00 19.5 0 Calma 4 Sudeste 0 -- -- 87
2019-07-21 22:00:00 21.4 0 Calma 6 Nordeste 0 -- -- 78
2019-07-21 21:00:00 24.1 2 Sudeste 12 Este 0 -- -- 71
2019-07-21 20:00:00 26 5 Este 17 Sudeste 0 -- -- 63
2019-07-21 19:00:00 26.9 9 Este 21 Sudeste 0 -- -- 61
2019-07-21 18:00:00 28.1 8 Este 21 Este 0 -- -- 59
2019-07-21 17:00:00 28.5 8 Este 25 Este 0 -- -- 63
2019-07-21 16:00:00 29.2 10 Este 28 Este 0 -- -- 59
2019-07-21 15:00:00 29.4 9 Este 22 Este 0 -- -- 57
2019-07-21 14:00:00 28.6 9 Este 19 Sudeste 0 -- -- 57
2019-07-21 13:00:00 27.6 7 Sudeste 17 Sudeste 0 -- -- 61
2019-07-21 12:00:00 26.3 5 Sur 14 Sur 0 -- -- 63
2019-07-21 11:00:00 25.4 2 Este 11 Este 0 -- -- 66
2019-07-21 10:00:00 22.5 0 Calma 0 Calma 0 -- -- 75
2019-07-21 09:00:00 18.4 0 Calma 0 Calma 0 -- -- 93
2019-07-21 08:00:00 16.1 0 Calma 0 Calma 0 -- -- 100
2019-07-21 07:00:00 14.5 0 Calma 0 Calma 0 -- -- 100
2019-07-21 06:00:00 14.6 0 Calma 0 Calma 0 -- -- 98
2019-07-21 05:00:00 15.6 0 Calma 0 Calma 0 -- -- 97
2019-07-21 04:00:00 16.3 0 Calma 5 Sudeste 0 -- -- 98
2019-07-21 03:00:00 17 3 Nordeste 5 Nordeste 0 -- -- 98
2019-07-21 02:00:00 17.1 0 Calma 5 Este 0 -- -- 98
2019-07-21 01:00:00 16.9 0 Calma 4 Sudeste 0 -- -- 96
2019-07-21 00:00:00 17.5 0 Calma 4 Sudeste 0 -- -- 94
2019-07-20 23:00:00 18.9 2 Norte 5 Sudeste 0 -- -- 89
2019-07-20 22:00:00 21 2 Nordeste 12 Nordeste 0 -- -- 79
2019-07-20 21:00:00 23.2 4 Este 15 Este 0 -- -- 70
2019-07-20 20:00:00 25.2 6 Este 17 Este 0 -- -- 64
2019-07-20 19:00:00 26.7 7 Este 23 Este 0 -- -- 61
2019-07-20 18:00:00 28.2 10 Este 26 Sudeste 0 -- -- 55
2019-07-20 17:00:00 29.7 8 Este 22 Este 0 -- -- 50
2019-07-20 16:00:00 31.6 9 Oeste 23 Sudoeste 0 -- -- 38
2019-07-20 15:00:00 30.5 7 Sudoeste 22 Oeste 0 -- -- 41
2019-07-20 14:00:00 28.9 8 Sudoeste 21 Oeste 0 -- -- 45
2019-07-20 13:00:00 26.7 10 Sudoeste 25 Sudoeste 0 -- -- 50
2019-07-20 12:00:00 23.8 12 Sudoeste 24 Sudoeste 0 -- -- 58
2019-07-20 11:00:00 21.2 8 Sudoeste 17 Oeste 0 -- -- 64
2019-07-20 10:00:00 18.3 3 Sudoeste 6 Sudoeste 0 -- -- 86
2019-07-20 09:00:00 17 3 Sur 12 Sudoeste 0 -- -- 85
2019-07-20 08:00:00 16.2 5 Sudoeste 20 Oeste 0 -- -- 94
2019-07-20 07:00:00 15.8 6 Sudoeste 14 Sudoeste 0 -- -- 100
2019-07-20 06:00:00 16.1 6 Sudoeste 16 Oeste 0 -- -- 100
2019-07-20 05:00:00 16.6 8 Sudoeste 17 Sudoeste 0 -- -- 100
2019-07-20 04:00:00 16.6 8 Sudoeste 15 Oeste 0 -- -- 100
2019-07-20 03:00:00 16.8 2 Sur 14 Sudoeste 0 -- -- 99
2019-07-20 02:00:00 17.6 8 Sudoeste 18 Oeste 0 -- -- 99
2019-07-20 01:00:00 17.9 0 Calma 10 Oeste 0 -- -- 99
2019-07-20 00:00:00 18.2 0 Calma 4 Nordeste 0 -- -- 94
2019-07-19 23:00:00 19.9 0 Calma 3 Sudeste 0 -- -- 92
2019-07-19 22:00:00 21.7 0 Calma 5 Nordeste 0 -- -- 85
2019-07-19 21:00:00 22.4 3 Nordeste 10 Nordeste 0 -- -- 81
2019-07-19 20:00:00 23.2 7 Nordeste 14 Nordeste 0 -- -- 78
2019-07-19 19:00:00 23.9 5 Este 16 Nordeste 0 -- -- 75
2019-07-19 18:00:00 25.2 7 Sudeste 19 Sudeste 0 -- -- 70
2019-07-19 17:00:00 27.1 6 Sur 14 Nordeste 0 -- -- 57
2019-07-19 16:00:00 26.1 5 Sur 14 Este 0 -- -- 60
2019-07-19 15:00:00 24.4 5 Este 11 Este 0 -- -- 67
2019-07-19 14:00:00 24 5 Nordeste 17 Este 0 -- -- 68
2019-07-19 13:00:00 22.8 5 Sudeste 22 Sudeste 0 -- -- 71
2019-07-19 12:00:00 22.1 4 Sur 12 Sur 0 -- -- 75
2019-07-19 11:00:00 20.3 3 Sur 6 Este 0 -- -- 82
2019-07-19 10:00:00 17.2 0 Calma 8 Nordeste 0 -- -- 86
2019-07-19 09:00:00 15.2 4 Nordeste 10 Nordeste 0 -- -- 90
2019-07-19 08:00:00 14.2 4 Nordeste 13 Norte 0 -- -- 93
2019-07-19 07:00:00 13.7 4 Este 10 Nordeste 0 -- -- 94
2019-07-19 06:00:00 14.5 4 Nordeste 10 Norte 0 -- -- 93
2019-07-19 05:00:00 14.3 3 Nordeste 13 Norte 0 -- -- 94
2019-07-19 04:00:00 14.7 3 Nordeste 11 Noroeste 0 -- -- 93
2019-07-19 03:00:00 15.5 4 Nordeste 10 Norte 0 -- -- 91
2019-07-19 02:00:00 15.8 4 Nordeste 10 Norte 0 -- -- 93
2019-07-19 01:00:00 16.4 3 Nordeste 9 Norte 0 -- -- 96
2019-07-19 00:00:00 17.6 0 Calma 3 Noroeste 0.2 -- -- 98
2019-07-18 23:00:00 18 2 Este 5 Nordeste 0 -- -- 98
2019-07-18 22:00:00 18.2 0 Calma 3 Norte 0 -- -- 97
2019-07-18 21:00:00 19 0 Calma 8 Nordeste 0 -- -- 95
2019-07-18 20:00:00 19.7 3 Norte 10 Nordeste 0 -- -- 90
2019-07-18 19:00:00 20.3 3 Nordeste 9 Norte 0 -- -- 91
2019-07-18 18:00:00 21 6 Este 14 Este 0 -- -- 83
2019-07-18 17:00:00 23.4 6 Este 15 Este 0 -- -- 66
2019-07-18 16:00:00 23.7 4 Sudeste 12 Nordeste 0 -- -- 59
2019-07-18 15:00:00 23.5 6 Nordeste 21 Nordeste 0 -- -- 58
2019-07-18 14:00:00 24.1 5 Nordeste 19 Nordeste 0 -- -- 57
2019-07-18 13:00:00 24.5 8 Este 21 Nordeste 0 -- -- 57
2019-07-18 12:00:00 24 5 Sudeste 15 Sudeste 0 -- -- 55
2019-07-18 11:00:00 23 4 Nordeste 13 Este 0 -- -- 57
2019-07-18 10:00:00 21.1 2 Nordeste 9 Nordeste 0 -- -- 71
2019-07-18 09:00:00 17.4 6 Nordeste 10 Nordeste 0 -- -- 84
2019-07-18 08:00:00 13.6 0 Calma 5 Este 0 -- -- 100
2019-07-18 07:00:00 12.1 0 Calma 4 Sur 0 -- -- 100
2019-07-18 06:00:00 12.7 0 Calma 6 Oeste 0 -- -- 100
2019-07-18 05:00:00 13.3 3 Oeste 10 Sudoeste 0 -- -- 100
2019-07-18 04:00:00 13.2 4 Oeste 13 Oeste 0 -- -- 100
2019-07-18 03:00:00 13.5 5 Oeste 16 Sudoeste 0 -- -- 100
2019-07-18 02:00:00 13.7 5 Sudoeste 8 Oeste 0 -- -- 100
2019-07-18 01:00:00 14 3 Sudoeste 5 Noroeste 0 -- -- 100
2019-07-18 00:00:00 14.4 0 Calma 3 Sur 0 -- -- 100